Time;durP1;ratioP1;P1;durP2;ratioP2;P2;SDS_P1;SDS_P2;PMS_P1;PMS_P2;Temp;Humidity;BMP_temperature;BMP_pressure;BME280_temperature;BME280_humidity;BME280_pressure;Samples;Min_cycle;Max_cycle;Signal;HPM_P1;HPM_P2
2022/01/30 00:00:09;;;;;;;0.00;0.00;;;7.30;99.90;;;;;;5031534;28;20092;-70
2022/01/30 00:02:35;;;;;;;0.00;0.00;;;7.30;99.90;;;;;;5031758;28;20033;-70
2022/01/30 00:05:01;;;;;;;0.00;0.00;;;7.40;99.90;;;;;;5031812;28;20029;-70
2022/01/30 00:07:27;;;;;;;0.30;0.30;;;7.40;99.90;;;;;;5031845;28;20087;-70
2022/01/30 00:09:53;;;;;;;1.40;0.63;;;7.40;99.90;;;;;;5031628;28;20037;-69
2022/01/30 00:12:26;;;;;;;0.08;0.08;;;7.40;99.90;;;;;;5031477;28;20065;-70
2022/01/30 00:14:55;;;;;;;6.43;2.08;;;7.30;99.90;;;;;;5031584;28;20033;-70
2022/01/30 00:17:26;;;;;;;0.00;0.00;;;7.30;99.90;;;;;;5031941;28;20036;-70
2022/01/30 00:19:58;;;;;;;0.00;0.00;;;7.30;99.90;;;;;;5014497;28;20479;-69
2022/01/30 00:25:02;;;;;;;0.38;0.38;;;7.40;99.90;;;;;;5031668;28;20036;-69
2022/01/30 00:27:31;;;;;;;0.00;0.00;;;7.40;99.90;;;;;;5047282;28;20501;-70
2022/01/30 00:29:57;;;;;;;0.47;0.47;;;7.40;99.90;;;;;;5046857;28;20037;-71
2022/01/30 00:32:24;;;;;;;0.10;0.10;;;7.40;99.90;;;;;;5032431;28;20711;-69
2022/01/30 00:34:49;;;;;;;0.10;0.10;;;7.50;99.90;;;;;;5051001;28;20435;-70
2022/01/30 00:37:16;;;;;;;0.40;0.40;;;7.40;99.90;;;;;;5034726;28;20120;-69
2022/01/30 00:39:43;;;;;;;0.25;0.25;;;7.40;99.90;;;;;;5035743;28;20433;-69
2022/01/30 00:42:09;;;;;;;0.10;0.10;;;7.40;99.90;;;;;;5035504;28;20037;-70
2022/01/30 00:44:35;;;;;;;0.10;0.10;;;7.40;99.90;;;;;;5034281;28;20398;-69
2022/01/30 00:47:03;;;;;;;0.00;0.00;;;7.50;99.90;;;;;;5035109;28;20042;-69
2022/01/30 00:49:28;;;;;;;0.00;0.00;;;7.50;99.90;;;;;;5035642;28;20041;-69
2022/01/30 00:51:54;;;;;;;0.28;0.28;;;7.50;99.90;;;;;;5035452;28;20098;-68
2022/01/30 00:54:20;;;;;;;0.08;0.08;;;7.50;99.90;;;;;;5035376;28;20041;-68
2022/01/30 00:56:46;;;;;;;0.00;0.00;;;7.50;99.90;;;;;;5035346;28;20447;-68
2022/01/30 00:59:12;;;;;;;0.08;0.08;;;7.50;99.90;;;;;;5050606;28;20449;-69
2022/01/30 01:01:38;;;;;;;0.10;0.10;;;7.50;99.90;;;;;;5035147;28;20038;-69
2022/01/30 01:04:04;;;;;;;0.00;0.00;;;7.50;99.90;;;;;;5035004;28;20029;-69
2022/01/30 01:06:30;;;;;;;0.17;0.17;;;7.50;99.90;;;;;;5033732;28;20148;-70
2022/01/30 01:09:02;;;;;;;0.20;0.20;;;7.50;99.90;;;;;;5034937;28;20446;-69
2022/01/30 01:11:57;;;;;;;0.00;0.00;;;7.50;99.90;;;;;;5035177;28;20463;-69
2022/01/30 01:25:11;;;;;;;0.00;0.00;;;7.40;99.90;;;;;;5033469;28;20044;-69
2022/01/30 01:27:37;;;;;;;0.10;0.10;;;7.50;99.90;;;;;;5033585;28;20025;-69
2022/01/30 01:30:04;;;;;;;0.00;0.00;;;7.50;99.90;;;;;;5034512;28;20485;-69
2022/01/30 01:32:29;;;;;;;0.10;0.10;;;7.40;99.90;;;;;;5034553;28;20050;-70
2022/01/30 01:34:55;;;;;;;0.10;0.10;;;7.40;99.90;;;;;;5033502;28;20037;-69
2022/01/30 01:37:21;;;;;;;0.35;0.35;;;7.30;99.90;;;;;;5049568;28;20390;-69
2022/01/30 01:39:46;;;;;;;0.10;0.10;;;7.30;99.90;;;;;;5034647;28;20033;-70
2022/01/30 01:42:15;;;;;;;0.55;0.55;;;7.20;99.90;;;;;;5034292;28;20034;-71
2022/01/30 01:44:46;;;;;;;0.00;0.00;;;7.20;99.90;;;;;;5034488;28;20033;-71
2022/01/30 01:47:12;;;;;;;0.25;0.25;;;7.40;99.90;;;;;;5034481;28;20049;-70
2022/01/30 01:49:39;;;;;;;0.20;0.20;;;7.40;99.90;;;;;;5034531;28;20163;-70
2022/01/30 01:52:19;;;;;;;0.00;0.00;;;7.40;99.90;;;;;;5034228;28;20033;-70
2022/01/30 01:54:58;;;;;;;0.20;0.20;;;7.30;99.90;;;;;;5049909;28;20033;-71
2022/01/30 01:57:26;;;;;;;0.10;0.10;;;7.30;99.90;;;;;;5034352;28;20120;-71
2022/01/30 01:59:53;;;;;;;0.00;0.00;;;7.40;99.90;;;;;;5034104;28;20026;-70
2022/01/30 02:02:20;;;;;;;0.00;0.00;;;7.40;99.90;;;;;;5032781;28;20041;-70
2022/01/30 02:04:47;;;;;;;0.05;0.05;;;7.50;99.90;;;;;;5032976;28;20029;-70
2022/01/30 02:09:45;;;;;;;0.13;0.13;;;7.40;99.90;;;;;;5034118;28;20037;-71
2022/01/30 02:12:17;;;;;;;0.00;0.00;;;7.40;99.90;;;;;;5032441;28;20482;-71
2022/01/30 02:15:15;;;;;;;0.17;0.17;;;7.50;99.90;;;;;;5032644;28;20037;-71
2022/01/30 02:25:46;;;;;;;0.00;0.00;;;7.40;99.90;;;;;;5033792;28;20053;-70
2022/01/30 02:28:16;;;;;;;0.10;0.10;;;7.40;99.90;;;;;;5033504;28;20084;-71
2022/01/30 02:30:58;;;;;;;0.10;0.10;;;7.40;99.90;;;;;;5032527;28;20044;-69
2022/01/30 02:33:24;;;;;;;0.10;0.10;;;7.30;99.90;;;;;;5033223;28;20486;-69
2022/01/30 02:35:50;;;;;;;0.10;0.10;;;7.30;99.90;;;;;;5033656;28;20028;-70
2022/01/30 02:38:17;;;;;;;0.00;0.00;;;7.40;99.90;;;;;;5031864;28;20029;-70
2022/01/30 02:40:46;;;;;;;0.00;0.00;;;7.50;99.90;;;;;;5032261;28;20436;-70
2022/01/30 02:43:14;;;;;;;0.10;0.10;;;7.50;99.90;;;;;;5033346;28;20037;-69
2022/01/30 02:45:47;;;;;;;0.08;0.08;;;7.60;99.90;;;;;;5032083;28;20068;-69
2022/01/30 02:48:17;;;;;;;0.00;0.00;;;7.70;99.90;;;;;;5033236;28;20030;-70
2022/01/30 02:53:15;;;;;;;0.00;0.00;;;7.80;99.90;;;;;;5032045;28;20537;-70
2022/01/30 02:55:40;;;;;;;0.10;0.10;;;7.70;99.90;;;;;;5032378;28;20041;-71
2022/01/30 02:58:06;;;;;;;0.00;0.00;;;7.90;99.90;;;;;;5033071;28;20112;-71
2022/01/30 03:00:33;;;;;;;0.25;0.25;;;8.00;99.90;;;;;;5032514;28;20087;-70
2022/01/30 03:03:00;;;;;;;0.20;0.20;;;8.20;99.90;;;;;;5033087;28;20474;-70
2022/01/30 03:05:26;;;;;;;0.10;0.10;;;8.20;99.90;;;;;;5032894;28;20148;-70
2022/01/30 03:07:52;;;;;;;6.82;3.30;;;8.10;99.90;;;;;;5032828;28;20101;-70
2022/01/30 03:10:19;;;;;;;0.00;0.00;;;8.30;99.90;;;;;;5032860;28;20045;-69
2022/01/30 03:12:44;;;;;;;0.10;0.10;;;8.30;99.90;;;;;;5032873;28;20398;-69
2022/01/30 03:15:11;;;;;;;0.25;0.25;;;8.40;99.90;;;;;;5032429;28;20049;-69
2022/01/30 03:17:37;;;;;;;0.00;0.00;;;8.30;99.90;;;;;;5032943;28;20079;-69
2022/01/30 03:20:04;;;;;;;0.00;0.00;;;8.30;99.90;;;;;;5032228;28;20026;-69
2022/01/30 03:22:30;;;;;;;0.10;0.10;;;8.40;99.90;;;;;;5031671;28;20034;-69
2022/01/30 03:24:55;;;;;;;0.00;0.00;;;8.40;99.90;;;;;;5014870;28;20164;-69
2022/01/30 03:27:21;;;;;;;3.75;2.40;;;8.40;99.90;;;;;;5047605;28;20045;-70
2022/01/30 03:29:52;;;;;;;0.30;0.30;;;8.30;99.90;;;;;;5032589;28;20030;-70
2022/01/30 03:32:17;;;;;;;0.00;0.00;;;8.30;99.90;;;;;;5047250;28;20037;-68
2022/01/30 03:34:44;;;;;;;0.00;0.00;;;8.30;99.90;;;;;;5032692;28;20046;-68
2022/01/30 03:37:09;;;;;;;0.10;0.10;;;8.20;99.90;;;;;;5032321;28;20032;-69
2022/01/30 03:39:35;;;;;;;0.00;0.00;;;8.20;99.90;;;;;;5031229;28;20037;-69
2022/01/30 03:42:01;;;;;;;0.45;0.45;;;8.10;99.90;;;;;;5031878;28;20037;-69
2022/01/30 03:44:27;;;;;;;0.00;0.00;;;8.10;99.90;;;;;;5032212;28;20076;-69
2022/01/30 03:46:52;;;;;;;0.00;0.00;;;8.10;99.90;;;;;;5032300;28;20095;-69
2022/01/30 03:49:18;;;;;;;0.05;0.05;;;8.10;99.90;;;;;;5030528;28;20079;-68
2022/01/30 03:51:44;;;;;;;0.90;0.85;;;8.10;99.90;;;;;;5031603;28;20033;-68
2022/01/30 03:54:09;;;;;;;0.00;0.00;;;8.10;99.90;;;;;;5031807;28;20034;-69
2022/01/30 03:56:35;;;;;;;0.00;0.00;;;8.00;99.90;;;;;;5032133;28;20394;-68
2022/01/30 03:59:01;;;;;;;0.10;0.10;;;8.00;99.90;;;;;;5030469;28;20041;-68
2022/01/30 04:01:26;;;;;;;0.10;0.10;;;8.10;99.90;;;;;;5031490;28;20052;-68
2022/01/30 04:03:52;;;;;;;0.98;0.90;;;8.00;99.90;;;;;;5031968;28;20027;-69
2022/01/30 04:06:18;;;;;;;0.10;0.10;;;8.10;99.90;;;;;;5031417;28;20509;-68
2022/01/30 04:08:44;;;;;;;0.20;0.20;;;8.00;99.90;;;;;;5031480;28;20515;-68
2022/01/30 04:11:11;;;;;;;0.05;0.05;;;8.00;99.90;;;;;;5030260;28;20025;-68
2022/01/30 04:13:37;;;;;;;0.32;0.32;;;8.00;99.90;;;;;;5031632;28;20536;-69
2022/01/30 04:16:03;;;;;;;1.75;1.38;;;7.90;99.90;;;;;;5031903;28;20041;-68
2022/01/30 04:18:29;;;;;;;0.22;0.22;;;7.90;99.90;;;;;;5014184;28;20073;-69
2022/01/30 04:20:54;;;;;;;0.00;0.00;;;7.80;99.90;;;;;;5030646;28;20537;-68
2022/01/30 04:23:20;;;;;;;0.10;0.10;;;7.80;99.90;;;;;;5031275;28;20030;-68
2022/01/30 04:25:46;;;;;;;0.00;0.00;;;7.80;99.90;;;;;;5031540;28;20541;-68
2022/01/30 04:28:12;;;;;;;0.60;0.45;;;7.80;99.90;;;;;;5031369;28;20037;-68
2022/01/30 04:30:38;;;;;;;0.03;0.03;;;7.80;99.90;;;;;;5031739;28;20520;-68
2022/01/30 04:33:04;;;;;;;1.80;1.70;;;7.90;99.90;;;;;;5029856;28;20045;-68
2022/01/30 04:35:31;;;;;;;0.00;0.00;;;7.90;99.90;;;;;;5030135;28;20038;-68
2022/01/30 04:38:15;;;;;;;0.63;0.63;;;7.90;99.90;;;;;;5030489;28;20083;-70
2022/01/30 05:02:09;;;;;;;0.68;0.68;;;7.40;99.90;;;;;;5031090;28;20037;-67
2022/01/30 05:09:40;;;;;;;0.10;0.10;;;7.30;99.90;;;;;;5031489;28;20110;-68
2022/01/30 05:12:06;;;;;;;0.73;0.73;;;7.20;99.90;;;;;;5031561;28;20037;-71
2022/01/30 05:14:35;;;;;;;0.73;0.73;;;7.20;99.90;;;;;;5031445;28;20037;-68
2022/01/30 05:17:04;;;;;;;0.35;0.32;;;7.10;99.90;;;;;;5031111;28;20073;-68
2022/01/30 05:19:31;;;;;;;0.00;0.00;;;7.10;99.90;;;;;;5000362;28;20478;-68
2022/01/30 05:21:58;;;;;;;0.40;0.40;;;7.10;99.90;;;;;;5034961;28;20048;-68
2022/01/30 05:24:24;;;;;;;0.00;0.00;;;7.10;99.90;;;;;;5033831;28;20030;-68
2022/01/30 05:26:51;;;;;;;0.00;0.00;;;7.10;99.90;;;;;;5034583;28;20113;-68
2022/01/30 05:29:17;;;;;;;0.30;0.30;;;7.20;99.90;;;;;;5034377;28;20458;-68
2022/01/30 05:31:44;;;;;;;0.00;0.00;;;7.10;99.90;;;;;;5033177;28;20102;-68
2022/01/30 05:34:11;;;;;;;0.03;0.03;;;7.00;99.90;;;;;;5034475;28;20045;-68
2022/01/30 05:36:40;;;;;;;0.00;0.00;;;7.00;99.90;;;;;;5034394;28;20081;-69
2022/01/30 05:39:07;;;;;;;0.95;0.95;;;6.90;99.90;;;;;;5033453;28;20164;-68
2022/01/30 05:41:33;;;;;;;0.00;0.00;;;6.90;99.90;;;;;;5034345;28;20065;-67
2022/01/30 05:44:09;;;;;;;0.10;0.10;;;6.90;99.90;;;;;;5034170;28;20508;-68
2022/01/30 05:46:43;;;;;;;0.00;0.00;;;6.90;99.90;;;;;;5034230;28;20069;-68
2022/01/30 05:49:12;;;;;;;0.15;0.15;;;6.80;99.90;;;;;;5033404;28;20398;-67
2022/01/30 05:51:38;;;;;;;0.05;0.05;;;6.90;99.90;;;;;;5016781;28;20037;-68
2022/01/30 05:54:04;;;;;;;0.32;0.32;;;6.80;99.90;;;;;;5034188;28;20041;-67
2022/01/30 05:56:30;;;;;;;3.47;1.52;;;6.90;99.90;;;;;;5034142;28;20429;-68
2022/01/30 05:58:55;;;;;;;0.10;0.10;;;6.90;99.90;;;;;;5034250;28;20079;-68
2022/01/30 06:01:21;;;;;;;0.30;0.30;;;6.80;99.90;;;;;;5032711;28;20034;-68
2022/01/30 06:03:47;;;;;;;0.00;0.00;;;6.80;99.90;;;;;;5032882;28;20104;-68
2022/01/30 06:06:13;;;;;;;0.00;0.00;;;6.70;99.90;;;;;;5034111;28;20029;-68
2022/01/30 06:08:46;;;;;;;0.00;0.00;;;6.70;99.90;;;;;;5033919;28;20060;-68
2022/01/30 06:11:13;;;;;;;2.50;2.00;;;6.60;99.90;;;;;;5034235;28;20041;-68
2022/01/30 06:13:39;;;;;;;0.00;0.00;;;6.70;99.90;;;;;;5034026;28;20083;-68
2022/01/30 06:16:06;;;;;;;3.15;1.10;;;6.70;99.90;;;;;;5033993;28;20599;-68
2022/01/30 06:18:32;;;;;;;0.63;0.63;;;6.70;99.90;;;;;;5033841;28;20022;-68
2022/01/30 06:20:58;;;;;;;0.03;0.03;;;6.60;99.90;;;;;;5032212;28;20034;-68
2022/01/30 06:23:26;;;;;;;0.10;0.10;;;6.60;99.90;;;;;;5033492;28;20036;-68
2022/01/30 06:25:56;;;;;;;0.10;0.10;;;6.50;99.90;;;;;;5032877;28;20025;-68
2022/01/30 06:28:22;;;;;;;0.00;0.00;;;6.50;99.90;;;;;;5033699;28;20116;-68
2022/01/30 06:30:49;;;;;;;0.00;0.00;;;6.50;99.90;;;;;;5032611;28;20076;-67
2022/01/30 06:33:15;;;;;;;0.00;0.00;;;6.50;99.90;;;;;;5031977;28;20057;-68
2022/01/30 06:35:42;;;;;;;0.43;0.40;;;6.50;99.90;;;;;;5015506;28;20136;-67
2022/01/30 06:38:08;;;;;;;0.75;0.75;;;6.50;99.90;;;;;;5013672;28;20133;-74
2022/01/30 06:40:33;;;;;;;0.10;0.10;;;6.40;99.90;;;;;;5012373;28;20036;-71
2022/01/30 06:43:00;;;;;;;0.03;0.03;;;6.40;99.90;;;;;;5013744;28;20112;-69
2022/01/30 06:45:26;;;;;;;0.10;0.10;;;6.40;99.90;;;;;;5013446;28;20025;-69
2022/01/30 06:47:55;;;;;;;0.00;0.00;;;6.30;99.90;;;;;;5013445;28;20026;-69
2022/01/30 06:50:21;;;;;;;0.10;0.10;;;6.20;99.90;;;;;;5013308;28;20482;-69
2022/01/30 06:52:47;;;;;;;0.45;0.45;;;6.20;99.90;;;;;;5013194;28;20113;-70
2022/01/30 06:55:13;;;;;;;0.05;0.05;;;6.20;99.90;;;;;;5013495;28;20022;-69
2022/01/30 06:57:46;;;;;;;0.00;0.00;;;6.30;99.90;;;;;;5013204;28;20042;-68
2022/01/30 07:00:13;;;;;;;0.38;0.38;;;6.20;99.90;;;;;;5011295;28;20112;-68
2022/01/30 07:02:39;;;;;;;1.27;1.17;;;6.30;99.90;;;;;;5011356;28;20070;-68
2022/01/30 07:05:05;;;;;;;0.00;0.00;;;6.20;99.90;;;;;;5011470;28;20633;-68
2022/01/30 07:07:31;;;;;;;0.43;0.43;;;6.20;99.90;;;;;;5012651;28;20468;-68
2022/01/30 07:09:57;;;;;;;0.10;0.10;;;6.20;99.90;;;;;;5011309;28;20038;-68
2022/01/30 07:12:23;;;;;;;13.27;2.60;;;6.20;99.90;;;;;;5011293;28;20087;-68
2022/01/30 07:14:48;;;;;;;0.00;0.00;;;6.20;99.90;;;;;;5013027;28;20084;-68
2022/01/30 07:17:15;;;;;;;0.00;0.00;;;6.10;99.90;;;;;;5011878;28;20045;-71
2022/01/30 07:19:43;;;;;;;0.30;0.30;;;6.20;99.90;;;;;;5010231;28;20663;-69
2022/01/30 07:22:09;;;;;;;0.10;0.10;;;6.20;99.90;;;;;;5012306;28;20038;-69
2022/01/30 07:24:35;;;;;;;0.00;0.00;;;6.20;99.90;;;;;;5012125;28;20030;-69
2022/01/30 07:27:00;;;;;;;0.10;0.10;;;6.30;99.90;;;;;;5012693;28;20034;-68
2022/01/30 07:29:26;;;;;;;0.00;0.00;;;6.20;99.90;;;;;;5011177;28;20545;-68
2022/01/30 07:31:52;;;;;;;0.10;0.10;;;6.20;99.90;;;;;;5011125;28;20034;-68
2022/01/30 07:34:21;;;;;;;0.47;0.47;;;6.30;99.90;;;;;;5012515;28;20486;-68
2022/01/30 07:36:47;;;;;;;0.00;0.00;;;6.30;99.90;;;;;;5012370;28;20398;-69
2022/01/30 07:39:15;;;;;;;0.00;0.00;;;6.40;99.90;;;;;;5011220;28;20573;-69
2022/01/30 07:41:42;;;;;;;0.10;0.10;;;6.40;99.90;;;;;;5011808;28;20081;-69
2022/01/30 07:44:08;;;;;;;0.10;0.10;;;6.50;99.90;;;;;;5020541;28;20040;-68
2022/01/30 07:46:34;;;;;;;0.03;0.03;;;6.60;99.90;;;;;;5022649;28;20037;-67
2022/01/30 07:49:00;;;;;;;0.40;0.40;;;6.60;99.90;;;;;;5030055;28;20022;-69
2022/01/30 07:51:26;;;;;;;0.00;0.00;;;6.60;99.90;;;;;;5031944;28;20033;-67
2022/01/30 07:53:52;;;;;;;0.00;0.00;;;6.50;99.90;;;;;;5030878;28;20087;-66
2022/01/30 07:56:18;;;;;;;0.00;0.00;;;6.60;99.90;;;;;;5031726;28;20044;-65
2022/01/30 07:58:44;;;;;;;0.43;0.43;;;6.60;99.90;;;;;;5031622;28;20021;-67
2022/01/30 08:01:09;;;;;;;0.22;0.22;;;6.60;99.90;;;;;;5047274;28;20026;-66
2022/01/30 08:03:35;;;;;;;0.00;0.00;;;6.60;99.90;;;;;;5031600;28;20029;-66
2022/01/30 08:06:01;;;;;;;0.15;0.15;;;6.70;99.90;;;;;;5032023;28;20041;-66
2022/01/30 08:08:27;;;;;;;0.10;0.10;;;6.70;99.90;;;;;;5031819;28;20470;-67
2022/01/30 08:10:52;;;;;;;2.05;1.95;;;6.70;99.90;;;;;;5031561;28;20109;-66
2022/01/30 08:13:18;;;;;;;0.50;0.50;;;6.70;99.90;;;;;;5047072;28;20029;-67
2022/01/30 08:15:45;;;;;;;0.95;0.95;;;6.70;99.90;;;;;;5031741;28;20072;-67
2022/01/30 08:18:11;;;;;;;0.10;0.10;;;6.80;99.90;;;;;;5031693;28;20037;-67
2022/01/30 08:20:37;;;;;;;0.05;0.05;;;6.80;99.90;;;;;;5031303;28;20389;-67
2022/01/30 08:23:11;;;;;;;0.25;0.25;;;6.80;99.90;;;;;;5031763;28;20033;-67
2022/01/30 08:25:38;;;;;;;0.30;0.30;;;6.90;99.90;;;;;;5046870;28;20030;-67
2022/01/30 08:28:04;;;;;;;0.10;0.10;;;6.80;99.90;;;;;;5031621;28;20159;-67
2022/01/30 08:30:30;;;;;;;1.75;1.00;;;6.90;99.90;;;;;;5031438;28;20120;-67
2022/01/30 08:32:58;;;;;;;0.10;0.10;;;6.90;99.90;;;;;;5031431;28;20058;-67
2022/01/30 08:35:25;;;;;;;0.50;0.50;;;6.90;99.90;;;;;;5031710;28;20082;-70
2022/01/30 08:37:51;;;;;;;0.10;0.10;;;6.90;99.90;;;;;;5031281;28;20038;-68
2022/01/30 08:40:20;;;;;;;4.80;1.65;;;6.90;99.90;;;;;;5011800;28;20071;-67
2022/01/30 08:42:48;;;;;;;0.10;0.10;;;6.90;99.90;;;;;;5011514;28;20120;-67
2022/01/30 08:45:17;;;;;;;0.38;0.38;;;6.70;99.90;;;;;;5011776;28;20033;-67
2022/01/30 08:47:45;;;;;;;1.25;1.23;;;6.70;99.90;;;;;;5026859;28;20076;-66
2022/01/30 08:50:13;;;;;;;0.28;0.28;;;6.50;99.90;;;;;;5026763;28;20099;-67
2022/01/30 08:52:39;;;;;;;0.68;0.68;;;6.50;99.90;;;;;;5011574;28;20030;-68
2022/01/30 08:55:08;;;;;;;0.85;0.85;;;6.60;99.90;;;;;;5030915;28;20038;-67
2022/01/30 08:57:34;;;;;;;0.85;0.85;;;6.60;99.90;;;;;;5015178;28;20421;-68
2022/01/30 09:00:01;;;;;;;2.08;1.92;;;6.70;99.90;;;;;;5030336;28;20109;-67
2022/01/30 09:02:27;;;;;;;0.98;0.98;;;6.60;99.90;;;;;;5014831;28;20069;-67
2022/01/30 09:04:53;;;;;;;1.20;1.10;;;6.70;99.90;;;;;;5014906;28;20042;-67
2022/01/30 09:07:20;;;;;;;1.38;1.27;;;6.70;99.90;;;;;;5013609;28;20034;-68
2022/01/30 09:09:46;;;;;;;5.25;2.05;;;6.70;99.90;;;;;;5030003;28;20503;-66
2022/01/30 09:12:12;;;;;;;5.53;2.92;;;6.70;99.90;;;;;;5013785;28;20034;-67
2022/01/30 09:14:40;;;;;;;3.30;0.82;;;6.70;99.90;;;;;;5014899;28;20128;-67
2022/01/30 09:17:14;;;;;;;0.88;0.88;;;6.80;99.90;;;;;;5015036;28;20507;-66
2022/01/30 09:19:43;;;;;;;1.33;1.23;;;7.00;99.90;;;;;;5014896;28;20475;-67
2022/01/30 09:22:10;;;;;;;0.22;0.22;;;7.00;99.90;;;;;;5014876;28;20041;-66
2022/01/30 09:24:37;;;;;;;0.00;0.00;;;7.10;99.90;;;;;;5014894;28;20085;-67
2022/01/30 09:27:06;;;;;;;0.25;0.25;;;7.20;99.90;;;;;;5014743;28;20041;-66
2022/01/30 09:29:33;;;;;;;0.00;0.00;;;7.30;99.90;;;;;;5014830;28;20107;-66
2022/01/30 09:32:01;;;;;;;0.10;0.10;;;7.30;99.90;;;;;;5013553;28;20056;-67
2022/01/30 09:34:27;;;;;;;11.57;3.80;;;7.40;99.90;;;;;;5014596;28;20113;-66
2022/01/30 09:36:53;;;;;;;0.10;0.10;;;7.40;99.90;;;;;;5030063;28;20498;-67
2022/01/30 09:39:19;;;;;;;0.00;0.00;;;7.50;99.90;;;;;;5030112;28;20084;-67
2022/01/30 09:41:48;;;;;;;0.10;0.10;;;7.50;99.90;;;;;;5014506;28;20037;-67
2022/01/30 09:44:14;;;;;;;0.00;0.00;;;7.60;99.90;;;;;;5029359;28;20030;-66
2022/01/30 09:46:42;;;;;;;0.93;0.85;;;7.50;99.90;;;;;;5049225;28;20080;-67
2022/01/30 09:49:08;;;;;;;0.10;0.10;;;7.30;99.90;;;;;;5034269;28;20030;-67
2022/01/30 09:51:35;;;;;;;0.00;0.00;;;7.30;99.90;;;;;;5034271;28;20037;-68
2022/01/30 09:54:02;;;;;;;0.00;0.00;;;7.20;99.90;;;;;;5049430;28;20037;-66
2022/01/30 09:56:28;;;;;;;0.00;0.00;;;7.20;99.90;;;;;;5049283;28;20039;-67
2022/01/30 09:58:55;;;;;;;0.00;0.00;;;7.30;99.90;;;;;;5033067;28;20030;-67
2022/01/30 10:01:20;;;;;;;0.00;0.00;;;7.50;99.90;;;;;;5033936;28;20042;-66
2022/01/30 10:03:49;;;;;;;0.00;0.00;;;7.50;99.90;;;;;;5032599;28;20055;-66
2022/01/30 10:06:22;;;;;;;1.90;1.55;;;7.50;99.90;;;;;;5032516;28;20084;-67
2022/01/30 10:08:53;;;;;;;0.10;0.10;;;7.50;99.90;;;;;;5032922;28;20115;-67
2022/01/30 10:11:31;;;;;;;;;;;7.50;99.90;;;;;;5017313;28;20037;-67
2022/01/30 10:14:14;;;;;;;0.00;0.00;;;7.60;99.90;;;;;;5047580;28;20350;-67
2022/01/30 10:16:47;;;;;;;0.43;0.43;;;7.60;99.90;;;;;;5033656;28;20030;-67
2022/01/30 10:19:24;;;;;;;0.00;0.00;;;7.60;99.90;;;;;;5033523;28;20386;-67
2022/01/30 10:22:08;;;;;;;0.00;0.00;;;7.90;99.90;;;;;;5033671;28;20121;-67
2022/01/30 10:24:42;;;;;;;0.10;0.10;;;7.80;99.90;;;;;;5033329;28;20033;-67
2022/01/30 10:27:28;;;;;;;0.32;0.32;;;7.90;99.90;;;;;;5032687;28;20035;-67
2022/01/30 10:30:07;;;;;;;0.00;0.00;;;8.00;99.90;;;;;;5048686;28;20021;-67
2022/01/30 10:32:34;;;;;;;0.10;0.10;;;7.90;99.90;;;;;;5032251;28;20048;-66
2022/01/30 10:35:07;;;;;;;0.75;0.75;;;8.20;99.90;;;;;;5032325;28;20390;-67
2022/01/30 10:37:36;;;;;;;0.00;0.00;;;8.10;99.90;;;;;;5048964;28;20539;-66
2022/01/30 10:40:17;;;;;;;2.63;1.65;;;8.10;99.90;;;;;;5031923;28;20041;-67
2022/01/30 10:42:48;;;;;;;0.10;0.10;;;8.50;99.90;;;;;;5016182;28;20478;-68
2022/01/30 10:45:31;;;;;;;0.00;0.00;;;8.50;99.50;;;;;;5033545;28;20067;-68
2022/01/30 10:48:20;;;;;;;0.00;0.00;;;8.50;99.60;;;;;;5033421;28;20524;-67
2022/01/30 10:50:48;;;;;;;0.10;0.10;;;8.70;99.30;;;;;;5033136;28;20045;-66
2022/01/30 10:53:26;;;;;;;0.00;0.00;;;8.80;98.90;;;;;;5033396;28;20421;-66
2022/01/30 10:55:53;;;;;;;0.00;0.00;;;9.10;97.40;;;;;;5031801;28;20570;-67
2022/01/30 10:58:23;;;;;;;0.00;0.00;;;9.20;97.30;;;;;;5032966;28;20029;-66
2022/01/30 11:00:56;;;;;;;0.00;0.00;;;9.40;96.80;;;;;;5032565;28;20086;-67
2022/01/30 11:03:45;;;;;;;1.00;0.90;;;9.50;96.20;;;;;;5032817;28;20498;-66
2022/01/30 11:06:14;;;;;;;0.00;0.00;;;9.30;96.30;;;;;;5033088;28;20064;-67
2022/01/30 11:08:45;;;;;;;0.10;0.10;;;8.80;97.50;;;;;;5032522;28;20071;-67
2022/01/30 11:11:35;;;;;;;0.43;0.43;;;9.00;97.60;;;;;;5031965;28;20048;-67
2022/01/30 11:19:18;;;;;;;0.35;0.35;;;8.70;97.30;;;;;;5032758;28;20036;-68
2022/01/30 11:21:53;;;;;;;0.00;0.00;;;9.00;97.00;;;;;;5032681;28;20414;-68
2022/01/30 11:24:23;;;;;;;0.00;0.00;;;9.10;96.80;;;;;;5031479;28;20026;-65
2022/01/30 11:26:49;;;;;;;0.00;0.00;;;8.90;97.20;;;;;;5047669;28;20387;-68
2022/01/30 11:29:19;;;;;;;0.00;0.00;;;8.60;97.70;;;;;;5031170;28;20034;-68
2022/01/30 11:31:44;;;;;;;0.28;0.28;;;8.40;98.00;;;;;;5032485;28;20030;-67
2022/01/30 11:34:10;;;;;;;0.10;0.10;;;8.30;98.10;;;;;;5032406;28;20437;-68
2022/01/30 11:36:42;;;;;;;0.00;0.00;;;8.30;98.50;;;;;;5032205;28;20033;-68
2022/01/30 11:39:23;;;;;;;0.03;0.03;;;8.20;99.00;;;;;;5031345;28;20022;-68
2022/01/30 11:42:14;;;;;;;0.65;0.65;;;8.30;99.00;;;;;;5015954;28;20057;-67
2022/01/30 11:44:43;;;;;;;0.00;0.00;;;8.30;99.00;;;;;;5012545;28;20033;-68
2022/01/30 11:47:15;;;;;;;0.00;0.00;;;8.20;99.40;;;;;;5027661;28;20176;-68
2022/01/30 11:49:49;;;;;;;;;;;8.00;99.00;;;;;;5012776;28;20080;-67
2022/01/30 11:52:17;;;;;;;0.05;0.05;;;8.10;98.70;;;;;;5011054;28;19913;-68
2022/01/30 11:54:57;;;;;;;0.00;0.00;;;8.30;98.50;;;;;;5025722;28;20083;-67
2022/01/30 11:57:26;;;;;;;0.32;0.32;;;8.20;98.80;;;;;;5045265;28;20029;-70
2022/01/30 12:00:00;;;;;;;1.75;1.65;;;8.50;98.70;;;;;;5024758;28;20526;-64
2022/01/30 12:02:36;;;;;;;0.00;0.00;;;9.00;97.90;;;;;;5030177;28;20514;-68
2022/01/30 12:05:11;;;;;;;0.10;0.10;;;9.10;98.00;;;;;;5014324;28;20033;-67
2022/01/30 12:07:46;;;;;;;0.00;0.00;;;9.00;98.20;;;;;;5031775;28;20037;-67
2022/01/30 12:10:21;;;;;;;0.00;0.00;;;8.60;98.10;;;;;;5030657;28;20040;-67
2022/01/30 12:13:08;;;;;;;0.13;0.13;;;8.40;98.30;;;;;;5031772;28;20033;-67
2022/01/30 12:15:45;;;;;;;0.05;0.05;;;8.70;98.00;;;;;;5031179;28;20046;-69
2022/01/30 12:18:35;;;;;;;0.10;0.10;;;8.70;97.80;;;;;;5031894;28;20552;-68
2022/01/30 12:21:09;;;;;;;0.32;0.32;;;8.60;97.70;;;;;;5016697;28;20045;-69
2022/01/30 12:23:37;;;;;;;0.03;0.03;;;8.50;98.00;;;;;;5032040;28;20029;-69
2022/01/30 12:26:06;;;;;;;0.00;0.00;;;8.50;97.90;;;;;;5047084;28;20079;-68
2022/01/30 12:28:49;;;;;;;0.00;0.00;;;8.50;98.20;;;;;;5025959;28;20038;-69
2022/01/30 12:31:34;;;;;;;0.00;0.00;;;8.40;98.10;;;;;;5026868;28;20029;-69
2022/01/30 12:34:07;;;;;;;1.73;0.95;;;8.30;98.70;;;;;;5011530;28;20057;-68
2022/01/30 12:36:42;;;;;;;0.00;0.00;;;8.20;99.00;;;;;;5011837;28;20030;-69
2022/01/30 12:39:11;;;;;;;0.20;0.20;;;8.30;98.80;;;;;;5026644;28;20078;-68
2022/01/30 12:41:40;;;;;;;0.73;0.73;;;8.30;99.10;;;;;;5026961;28;20124;-69
2022/01/30 12:44:13;;;;;;;0.00;0.00;;;8.40;99.40;;;;;;5011579;28;20037;-68
2022/01/30 12:46:46;;;;;;;0.00;0.00;;;8.40;99.90;;;;;;5026505;28;20073;-67
2022/01/30 12:49:23;;;;;;;1.83;1.70;;;8.50;99.20;;;;;;5011811;28;20531;-68
2022/01/30 12:51:58;;;;;;;0.00;0.00;;;8.60;98.30;;;;;;5012066;28;20372;-68
2022/01/30 12:54:37;;;;;;;0.00;0.00;;;8.30;98.50;;;;;;5011790;28;20522;-68
2022/01/30 12:57:04;;;;;;;0.00;0.00;;;8.30;99.00;;;;;;5027356;28;20076;-68
2022/01/30 12:59:30;;;;;;;0.30;0.30;;;8.50;99.00;;;;;;5010245;28;20112;-66
2022/01/30 13:02:08;;;;;;;0.00;0.00;;;8.60;98.60;;;;;;5011643;28;20038;-67
2022/01/30 13:04:36;;;;;;;0.00;0.00;;;8.50;97.70;;;;;;5026877;28;20029;-67
2022/01/30 13:07:02;;;;;;;0.20;0.20;;;8.50;98.30;;;;;;5027110;28;20092;-67
2022/01/30 13:09:31;;;;;;;0.00;0.00;;;8.50;98.40;;;;;;5026715;28;20065;-67
2022/01/30 13:12:12;;;;;;;0.65;0.65;;;8.50;97.80;;;;;;5011386;28;20440;-68
2022/01/30 13:14:39;;;;;;;;;;;8.40;97.70;;;;;;5026789;28;20045;-67
2022/01/30 13:17:06;;;;;;;0.00;0.00;;;8.40;98.30;;;;;;5011309;28;19983;-67
2022/01/30 13:19:45;;;;;;;0.80;0.80;;;8.30;97.90;;;;;;5011514;28;20034;-67
2022/01/30 13:22:28;;;;;;;1.15;0.90;;;8.30;98.20;;;;;;5011836;28;20554;-67
2022/01/30 13:24:58;;;;;;;0.00;0.00;;;8.50;98.20;;;;;;5026483;28;20034;-66
2022/01/30 13:27:24;;;;;;;0.10;0.10;;;8.40;97.90;;;;;;5011761;28;20034;-67
2022/01/30 13:29:53;;;;;;;0.00;0.00;;;8.40;97.90;;;;;;5026490;28;20276;-67
2022/01/30 13:32:25;;;;;;;0.05;0.05;;;8.40;98.30;;;;;;5010250;28;20092;-67
2022/01/30 13:34:53;;;;;;;0.00;0.00;;;8.50;98.30;;;;;;5011373;28;20387;-67
2022/01/30 13:37:20;;;;;;;0.10;0.10;;;8.60;97.60;;;;;;5016970;28;20109;-67
2022/01/30 13:44:52;;;;;;;4.22;1.05;;;8.60;97.50;;;;;;5034489;28;20061;-67
2022/01/30 13:47:22;;;;;;;0.00;0.00;;;8.60;97.80;;;;;;5034666;28;20029;-67
2022/01/30 13:49:49;;;;;;;0.75;0.75;;;8.60;98.60;;;;;;5033761;28;20481;-67
2022/01/30 13:52:18;;;;;;;0.00;0.00;;;8.60;98.80;;;;;;5034208;28;20406;-66
2022/01/30 13:55:03;;;;;;;0.52;0.52;;;8.50;99.20;;;;;;5034347;28;20033;-67
2022/01/30 13:57:35;;;;;;;0.10;0.10;;;8.50;99.70;;;;;;5034386;28;20765;-64
2022/01/30 14:00:10;;;;;;;4.03;2.28;;;8.50;99.90;;;;;;5033958;28;20470;-67
2022/01/30 14:03:04;;;;;;;0.08;0.08;;;8.60;99.60;;;;;;5033041;28;20041;-67
2022/01/30 14:05:39;;;;;;;0.10;0.10;;;8.60;99.00;;;;;;5033128;28;20072;-67
2022/01/30 14:08:18;;;;;;;1.75;1.65;;;8.50;99.00;;;;;;5034462;28;20308;-68
2022/01/30 14:10:45;;;;;;;0.00;0.00;;;8.40;99.60;;;;;;5034323;28;20026;-67